Weather History for KIJX - January, 2014

Change the Weather History Date:

Monday, January 20, 2014

  Actual Average (KSPI) Record (KSPI)
Temperature  
Mean Temperature 36 °F 26 °F  
Max Temperature 43 °F 35 °F 71 °F (1906)
Min Temperature 29 °F 18 °F -21 °F (1985)
Degree Days  
Heating Degree Days 29 38  
Month to date heating degree days 767  
Since 1 July heating degree days 2907  
Cooling Degree Days 0 0  
Month to date cooling degree days 0  
Year to date cooling degree days 0  
Moisture  
Dew Point 30 °F    
Average Humidity 77    
Maximum Humidity 94    
Minimum Humidity 59    
Precipitation  
Precipitation 0.02 in 0.05 in 1.55 in (1898)
Month to date precipitation 1.22  
Year to date precipitation 1.22  
Snow  
Snow 0.00 in 0.20 in 5.60 in (1922)
Month to date snowfall 4.1  
Since 1 July snowfall 10.3  
Snow Depth -    
Sea Level Pressure  
Sea Level Pressure 29.90 in    
Wind  
Wind Speed 8 mph (WNW)    
Max Wind Speed 26 mph    
Max Gust Speed 32 mph    
Visibility 10 miles    
Events Rain    
T = Trace of Precipitation, MM = Missing Value Source: NWS Daily Summary

Daily Weather History Graph

Daily Weather History Graph

Search for Another Location

Airport or City:

Trip Planner

Search our weather history database for the weather conditions in past years. The results will help you decide how hot, cold, wet, or windy it might be!

Date:

Astronomy

Jan. 20, 2014 Rise Set
Actual Time 7:17 AM CST 5:06 PM CST
Civil Twilight 6:48 AM CST 5:35 PM CST
Nautical Twilight 6:15 AM CST 6:08 PM CST
Astronomical Twilight 5:43 AM CST 6:40 PM CST
Moon 9:40 PM CST (1/20) 9:18 AM CST (1/20)
Length of Visible Light 10h 47m
Length of Day
9h 48m
Waning Gibbous, 82% of the Moon is Illuminated
Jan 20
Waning Gibbous
Jan 23
Last Quarter
Jan 30
New
Feb 6
First Quarter
Feb 14
Full

Hourly Weather History & Observations

Time (CST) Temp. Windchill Dew Point Humidity Pressure Visibility Wind Dir Wind Speed Gust Speed Precip Events Conditions
12:15 AM 40.8 °F 35.0 °F 29.3 °F 64% 29.74 in 10.0 mi WSW 9.2 mph - N/A   Clear
12:35 AM 41.0 °F 35.8 °F 29.1 °F 63% 29.75 in 10.0 mi WSW 8.1 mph - N/A   Clear
12:55 AM 41.0 °F 35.2 °F 29.1 °F 63% 29.74 in 10.0 mi West 9.2 mph - N/A   Clear
1:15 AM 40.5 °F 33.2 °F 29.7 °F 65% 29.75 in 10.0 mi West 12.7 mph - N/A   Clear
1:35 AM 38.5 °F 31.6 °F 29.5 °F 70% 29.76 in 10.0 mi West 10.4 mph - N/A   Clear
1:55 AM 38.7 °F 30.9 °F 30.0 °F 71% 29.77 in 10.0 mi WNW 12.7 mph - N/A   Clear
2:15 AM 39.7 °F 32.3 °F 30.2 °F 69% 29.78 in 10.0 mi WNW 12.7 mph - N/A   Clear
2:35 AM 38.5 °F 31.6 °F 30.2 °F 72% 29.80 in 10.0 mi WNW 10.4 mph - N/A   Clear
2:55 AM 38.3 °F 33.2 °F 30.2 °F 73% 29.81 in 10.0 mi WNW 6.9 mph - N/A   Clear
3:15 AM 36.1 °F 29.9 °F 30.0 °F 78% 29.82 in 10.0 mi WNW 8.1 mph - N/A   Clear
3:35 AM 35.4 °F 29.7 °F 30.0 °F 81% 29.83 in 10.0 mi WNW 6.9 mph - N/A   Clear
3:55 AM 34.7 °F 29.6 °F 29.7 °F 82% 29.83 in 10.0 mi NW 5.8 mph - N/A   Clear
4:15 AM 36.1 °F 29.3 °F 30.2 °F 79% 29.84 in 10.0 mi NW 9.2 mph - N/A   Clear
4:35 AM 35.8 °F 30.1 °F 30.0 °F 80% 29.85 in 10.0 mi WNW 6.9 mph - N/A   Clear
4:55 AM 34.7 °F 28.8 °F 29.7 °F 82% 29.86 in 10.0 mi WNW 6.9 mph - N/A   Clear
5:15 AM 34.7 °F 27.5 °F 29.3 °F 81% 29.87 in 10.0 mi NW 9.2 mph - N/A   Clear
5:35 AM 33.8 °F 28.6 °F 29.1 °F 83% 29.87 in 10.0 mi WNW 5.8 mph - N/A   Clear
5:55 AM 31.6 °F 26.0 °F 27.7 °F 85% 29.89 in 10.0 mi WNW 5.8 mph - N/A   Clear
6:15 AM 31.5 °F 24.9 °F 28.2 °F 88% 29.90 in 10.0 mi West 6.9 mph - N/A   Clear
6:35 AM 31.8 °F 28.5 °F 28.9 °F 89% 29.90 in 10.0 mi WSW 3.5 mph - N/A   Clear
6:55 AM 30.6 °F 27.1 °F 27.3 °F 88% 29.90 in 10.0 mi WSW 3.5 mph - N/A   Clear
7:15 AM 29.5 °F 25.9 °F 26.8 °F 90% 29.90 in 10.0 mi WSW 3.5 mph - N/A   Clear
7:35 AM 29.7 °F 26.1 °F 27.7 °F 92% 29.91 in 10.0 mi West 3.5 mph - N/A   Clear
7:55 AM 30.7 °F 27.3 °F 28.9 °F 93% 29.92 in 10.0 mi West 3.5 mph - N/A   Clear
8:15 AM 32.2 °F 27.7 °F 30.4 °F 93% 29.92 in 10.0 mi West 4.6 mph - N/A   Clear
8:35 AM 33.3 °F 27.9 °F 30.9 °F 91% 29.93 in 10.0 mi West 5.8 mph - N/A   Clear
8:55 AM 34.9 °F 29.0 °F 31.3 °F 87% 29.93 in 10.0 mi WNW 6.9 mph - N/A   Clear
9:15 AM 36.0 °F 29.6 °F 30.7 °F 81% 29.93 in 10.0 mi WNW 8.1 mph - N/A   Clear
9:35 AM 37.2 °F 31.9 °F 31.1 °F 79% 29.94 in 10.0 mi WNW 6.9 mph - N/A   Clear
9:55 AM 37.8 °F 31.3 °F 30.4 °F 75% 29.95 in 10.0 mi WNW 9.2 mph - N/A   Clear
10:15 AM 38.5 °F 32.7 °F 30.4 °F 73% 29.96 in 10.0 mi WNW 8.1 mph - N/A   Clear
10:35 AM 39.2 °F 34.2 °F 30.4 °F 71% 29.96 in 10.0 mi NW 6.9 mph - N/A   Clear
10:55 AM 39.6 °F 33.5 °F 29.8 °F 68% 29.95 in 10.0 mi NW 9.2 mph - N/A   Clear
11:15 AM 40.5 °F 34.1 °F 29.5 °F 65% 29.95 in 10.0 mi NW 10.4 mph - N/A   Clear
11:35 AM 41.2 °F 35.0 °F 29.7 °F 64% 29.95 in 10.0 mi WNW 10.4 mph - N/A   Clear
11:55 AM 40.5 °F 33.6 °F 29.7 °F 65% 29.95 in 10.0 mi NW 11.5 mph - N/A   Clear
12:15 PM 41.4 °F 35.2 °F 30.2 °F 65% 29.94 in 10.0 mi NW 10.4 mph - N/A   Clear
12:35 PM 41.0 °F 35.2 °F 30.0 °F 65% 29.93 in 10.0 mi WNW 9.2 mph - N/A   Clear
12:55 PM 42.6 °F 39.0 °F 30.4 °F 62% 29.92 in 10.0 mi WNW 5.8 mph - N/A   Clear
1:15 PM 42.8 °F 39.3 °F 29.3 °F 59% 29.92 in 10.0 mi NW 5.8 mph - N/A   Clear
1:35 PM 43.2 °F 37.9 °F 29.8 °F 59% 29.92 in 10.0 mi NW 9.2 mph - N/A   Clear
1:55 PM 43.7 °F 38.6 °F 30.6 °F 60% 29.92 in 10.0 mi NW 9.2 mph - N/A   Clear
2:15 PM 43.7 °F 38.6 °F 30.6 °F 60% 29.92 in 10.0 mi NW 9.2 mph - N/A   Clear
2:35 PM 42.6 °F 37.2 °F 30.2 °F 61% 29.92 in 10.0 mi NW 9.2 mph - N/A   Clear
2:55 PM 41.9 °F 39.0 °F 31.1 °F 66% 29.93 in 10.0 mi NW 4.6 mph - N/A   Clear
3:15 PM 41.4 °F 36.8 °F 30.9 °F 66% 29.94 in 10.0 mi NW 6.9 mph - N/A   Clear
3:35 PM 40.6 °F 34.8 °F 31.1 °F 69% 29.95 in 10.0 mi NW 9.2 mph - N/A   Clear
3:55 PM 40.5 °F 35.8 °F 30.7 °F 68% 29.95 in 10.0 mi NW 6.9 mph - N/A   Clear
4:15 PM 39.4 °F 34.5 °F 31.3 °F 73% 29.95 in 10.0 mi NW 6.9 mph - N/A   Clear
4:35 PM 38.3 °F 34.8 °F 30.7 °F 74% 29.94 in 10.0 mi WNW 4.6 mph - N/A   Clear
4:55 PM 37.2 °F 34.7 °F 29.8 °F 75% 29.95 in 10.0 mi NW 3.5 mph - N/A   Clear
5:15 PM 36.1 °F - 29.5 °F 77% 29.95 in 10.0 mi Calm Calm - N/A   Clear
5:35 PM 35.1 °F - 28.9 °F 78% 29.95 in 10.0 mi Calm Calm - N/A   Clear
5:55 PM 36.7 °F - 28.9 °F 74% 29.95 in 10.0 mi Calm Calm - N/A   Clear
6:15 PM 34.3 °F - 28.8 °F 80% 29.95 in 10.0 mi Calm Calm - N/A   Mostly Cloudy
6:35 PM 34.9 °F 32.0 °F 28.8 °F 78% 29.94 in 10.0 mi SW 3.5 mph - N/A   Overcast
6:55 PM 34.2 °F 31.2 °F 29.3 °F 82% 29.94 in 10.0 mi SW 3.5 mph - N/A   Overcast
7:15 PM 34.7 °F 29.6 °F 29.5 °F 81% 29.94 in 10.0 mi SW 5.8 mph - N/A   Overcast
7:35 PM 34.7 °F 30.6 °F 29.8 °F 82% 29.93 in 10.0 mi SW 4.6 mph - N/A   Overcast
7:55 PM 35.2 °F 30.3 °F 30.2 °F 82% 29.93 in 10.0 mi SW 5.8 mph - N/A   Overcast
8:15 PM 35.4 °F 31.5 °F 30.0 °F 81% 29.93 in 10.0 mi SW 4.6 mph - N/A   Overcast
8:35 PM 35.1 °F 32.2 °F 30.4 °F 83% 29.93 in 10.0 mi SSW 3.5 mph - N/A Rain Light Rain
8:55 PM 36.7 °F 29.9 °F 31.3 °F 81% 29.92 in 10.0 mi WSW 9.2 mph - N/A Rain Light Rain
9:15 PM 35.6 °F 28.0 °F 32.0 °F 87% 29.92 in 4.0 mi WSW 10.4 mph - 0.02 in Rain Light Rain
9:35 PM 35.1 °F 29.3 °F 32.2 °F 89% 29.91 in 10.0 mi SW 6.9 mph - 0.02 in   Overcast
9:55 PM 35.8 °F 26.9 °F 32.0 °F 86% 29.90 in 10.0 mi West 13.8 mph 19.6 mph 0.02 in   Overcast
10:15 PM 36.0 °F 25.0 °F 32.0 °F 86% 29.90 in 10.0 mi NW 20.7 mph 27.6 mph N/A   Overcast
10:35 PM 35.8 °F 25.7 °F 32.0 °F 86% 29.91 in 10.0 mi WNW 17.3 mph 26.5 mph N/A   Overcast
10:55 PM 35.1 °F 24.5 °F 32.0 °F 89% 29.92 in 10.0 mi NW 18.4 mph 24.2 mph N/A   Overcast
11:15 PM 32.5 °F 21.5 °F 30.9 °F 94% 29.93 in 5.0 mi North 17.3 mph 25.3 mph N/A   Light Drizzle
11:35 PM 32.2 °F 21.8 °F 30.6 °F 94% 29.93 in 5.0 mi North 15.0 mph 19.6 mph N/A   Overcast
11:55 PM 29.1 °F 14.5 °F 26.2 °F 89% 29.95 in 4.0 mi North 26.5 mph 32.2 mph N/A   Overcast